createdAt,value
2019-05-11T00:01:49.659Z,83.05
2019-05-11T00:04:18.278Z,83.13
2019-05-11T00:06:46.930Z,82.69
2019-05-11T00:09:15.546Z,83.91
2019-05-11T00:11:44.249Z,84.33
2019-05-11T00:14:12.882Z,84.50
2019-05-11T00:16:41.477Z,85.72
2019-05-11T00:19:10.105Z,87.20
2019-05-11T00:21:38.698Z,86.14
2019-05-11T00:24:07.314Z,85.79
2019-05-11T00:26:35.920Z,86.46
2019-05-11T00:29:04.600Z,87.57
2019-05-11T00:31:33.210Z,89.07
2019-05-11T00:34:01.832Z,86.84
2019-05-11T00:36:30.426Z,86.99
2019-05-11T00:38:59.152Z,88.24
2019-05-11T00:41:27.763Z,88.82
2019-05-11T00:43:56.413Z,89.21
2019-05-11T00:46:25.017Z,89.46
2019-05-11T00:48:53.645Z,90.21
2019-05-11T00:51:22.247Z,91.23
2019-05-11T00:53:50.865Z,91.51
2019-05-11T00:56:19.664Z,92.00
2019-05-11T00:58:50.908Z,92.19
2019-05-11T01:01:18.582Z,92.93
2019-05-11T01:03:47.210Z,93.67
2019-05-11T01:06:15.823Z,94.20
2019-05-11T01:08:44.451Z,95.07
2019-05-11T01:11:13.053Z,95.82
2019-05-11T01:13:41.692Z,96.44
2019-05-11T01:16:10.297Z,96.94
2019-05-11T01:18:38.928Z,97.03
2019-05-11T01:21:07.606Z,96.71
2019-05-11T01:23:36.230Z,96.95
2019-05-11T01:26:04.910Z,97.25
2019-05-11T01:28:33.518Z,97.07
2019-05-11T01:31:02.139Z,97.98
2019-05-11T01:33:30.740Z,97.81
2019-05-11T01:35:59.353Z,97.98
2019-05-11T01:38:27.942Z,98.45
2019-05-11T01:40:59.087Z,98.49
2019-05-11T01:43:26.893Z,98.39
2019-05-11T01:45:55.568Z,98.80
2019-05-11T01:48:24.170Z,99.27
2019-05-11T01:50:52.787Z,99.34
2019-05-11T01:53:21.408Z,99.61
2019-05-11T01:55:50.042Z,99.61
2019-05-11T01:58:18.643Z,99.69
2019-05-11T02:00:47.264Z,99.71
2019-05-11T02:03:15.886Z,100.00
2019-05-11T02:05:44.501Z,99.98
2019-05-11T02:08:13.132Z,100.00
2019-05-11T02:10:41.807Z,100.00
2019-05-11T02:13:10.465Z,100.00
2019-05-11T02:15:39.101Z,100.00
2019-05-11T02:18:07.706Z,100.00
2019-05-11T02:20:36.376Z,100.00
2019-05-11T02:23:05.052Z,100.00
2019-05-11T02:25:33.668Z,100.00
2019-05-11T02:28:02.320Z,100.00
2019-05-11T02:30:30.984Z,100.00
2019-05-11T02:32:59.596Z,100.00
2019-05-11T02:35:28.216Z,100.00
2019-05-11T02:37:56.883Z,100.00
2019-05-11T02:40:25.689Z,100.00
2019-05-11T02:42:54.343Z,100.00
2019-05-11T02:45:38.044Z,100.00
2019-05-11T02:48:06.749Z,100.00
2019-05-11T02:50:36.773Z,100.00
2019-05-11T02:53:05.489Z,100.00
2019-05-11T02:55:35.221Z,100.00
2019-05-11T02:58:04.635Z,100.00
2019-05-11T03:00:41.597Z,100.00
2019-05-11T03:03:10.422Z,100.00
2019-05-11T03:05:39.105Z,100.00
2019-05-11T03:08:07.835Z,100.00
2019-05-11T03:10:36.453Z,100.00
2019-05-11T03:13:05.160Z,100.00
2019-05-11T03:15:33.859Z,100.00
2019-05-11T03:18:02.482Z,100.00
2019-05-11T03:20:31.170Z,100.00
2019-05-11T03:22:59.932Z,100.00
2019-05-11T03:25:28.492Z,100.00
2019-05-11T03:27:57.133Z,100.00
2019-05-11T03:30:25.795Z,100.00
2019-05-11T03:32:54.397Z,100.00
2019-05-11T03:35:23.056Z,100.00
2019-05-11T03:37:51.642Z,100.00
2019-05-11T03:40:20.337Z,100.00
2019-05-11T03:42:48.969Z,100.00
2019-05-11T03:45:17.670Z,100.00
2019-05-11T03:47:48.688Z,100.00
2019-05-11T03:50:17.488Z,100.00
2019-05-11T03:52:46.191Z,100.00
2019-05-11T03:55:14.884Z,100.00
2019-05-11T03:57:43.524Z,100.00
2019-05-11T04:00:12.772Z,100.00
2019-05-11T04:02:41.453Z,100.00
2019-05-11T04:05:10.312Z,100.00
2019-05-11T04:07:38.931Z,100.00
2019-05-11T04:10:08.111Z,100.00
2019-05-11T04:12:36.826Z,100.00
2019-05-11T04:15:05.744Z,100.00
2019-05-11T04:17:34.373Z,100.00
2019-05-11T04:20:03.063Z,100.00
2019-05-11T04:22:31.711Z,100.00
2019-05-11T04:25:00.327Z,100.00
2019-05-11T04:27:28.996Z,100.00
2019-05-11T04:29:57.623Z,100.00
2019-05-11T04:32:26.510Z,100.00
2019-05-11T04:34:55.160Z,100.00
2019-05-11T04:37:23.789Z,100.00
2019-05-11T04:39:52.479Z,100.00
2019-05-11T04:42:21.185Z,100.00
2019-05-11T04:44:52.265Z,100.00
2019-05-11T04:47:20.089Z,100.00
2019-05-11T04:49:48.732Z,100.00
2019-05-11T04:52:17.333Z,100.00
2019-05-11T04:54:45.946Z,100.00
2019-05-11T04:57:14.561Z,100.00
2019-05-11T04:59:43.179Z,100.00
2019-05-11T05:02:12.039Z,100.00
2019-05-11T05:04:40.676Z,100.00
2019-05-11T05:07:10.691Z,100.00
2019-05-11T05:09:42.930Z,100.00
2019-05-11T05:12:14.038Z,100.00
2019-05-11T05:14:40.304Z,100.00
2019-05-11T05:17:08.960Z,100.00
2019-05-11T05:19:37.717Z,100.00
2019-05-11T05:22:06.413Z,100.00
2019-05-11T05:24:35.063Z,100.00
2019-05-11T05:27:03.676Z,100.00
2019-05-11T05:29:32.295Z,100.00
2019-05-11T05:32:00.913Z,100.00
2019-05-11T05:34:29.541Z,100.00
2019-05-11T05:36:58.278Z,100.00
2019-05-11T05:39:26.933Z,100.00
2019-05-11T05:41:57.479Z,100.00
2019-05-11T05:44:27.832Z,100.00
2019-05-11T05:46:56.603Z,100.00
2019-05-11T05:49:25.224Z,100.00
2019-05-11T05:51:57.819Z,100.00
2019-05-11T05:54:24.210Z,100.00
2019-05-11T05:56:52.828Z,100.00
2019-05-11T05:59:21.430Z,100.00
2019-05-11T06:01:50.048Z,100.00
2019-05-11T06:04:18.679Z,100.00
2019-05-11T06:06:47.300Z,100.00
2019-05-11T06:09:15.900Z,100.00
2019-05-11T06:11:44.515Z,100.00
2019-05-11T06:14:13.210Z,100.00
2019-05-11T06:16:41.834Z,100.00
2019-05-11T06:19:10.439Z,100.00
2019-05-11T06:21:39.146Z,100.00
2019-05-11T06:24:08.634Z,100.00
2019-05-11T06:26:37.833Z,100.00
2019-05-11T06:29:06.473Z,100.00
2019-05-11T06:31:35.106Z,100.00
2019-05-11T06:34:03.760Z,100.00
2019-05-11T06:36:32.471Z,100.00
2019-05-11T06:39:01.155Z,100.00
2019-05-11T06:41:29.855Z,100.00
2019-05-11T06:44:01.969Z,100.00
2019-05-11T06:46:28.880Z,100.00
2019-05-11T06:48:57.488Z,100.00
2019-05-11T06:51:26.178Z,100.00
2019-05-11T06:53:54.775Z,100.00
2019-05-11T06:56:23.408Z,100.00
2019-05-11T06:58:52.010Z,100.00
2019-05-11T07:01:20.631Z,100.00
2019-05-11T07:03:49.338Z,100.00
2019-05-11T07:06:17.972Z,100.00
2019-05-11T07:08:46.644Z,100.00
2019-05-11T07:11:15.289Z,100.00
2019-05-11T07:13:43.910Z,100.00
2019-05-11T07:16:12.641Z,100.00
2019-05-11T07:18:41.419Z,100.00
2019-05-11T07:21:10.038Z,100.00
2019-05-11T07:23:38.924Z,100.00
2019-05-11T07:26:07.770Z,100.00
2019-05-11T07:28:36.486Z,100.00
2019-05-11T07:31:05.234Z,100.00
2019-05-11T07:33:33.836Z,100.00
2019-05-11T07:36:02.450Z,100.00
2019-05-11T07:38:31.136Z,100.00
2019-05-11T07:40:59.839Z,100.00
2019-05-11T07:43:28.848Z,100.00
2019-05-11T07:45:58.485Z,100.00
2019-05-11T07:48:27.893Z,100.00
2019-05-11T07:50:58.462Z,100.00
2019-05-11T07:53:27.977Z,100.00
2019-05-11T07:55:57.705Z,100.00
2019-05-11T07:58:28.543Z,100.00
2019-05-11T08:00:58.163Z,100.00
2019-05-11T08:03:28.344Z,100.00
2019-05-11T08:05:58.238Z,100.00
2019-05-11T08:08:28.388Z,100.00
2019-05-11T08:10:58.651Z,100.00
2019-05-11T08:13:28.215Z,100.00
2019-05-11T08:15:57.870Z,100.00
2019-05-11T08:18:28.243Z,100.00
2019-05-11T08:20:58.302Z,100.00
2019-05-11T08:23:28.490Z,100.00
2019-05-11T08:25:58.087Z,100.00
2019-05-11T08:28:28.761Z,100.00
2019-05-11T08:30:58.031Z,100.00
2019-05-11T08:33:28.370Z,100.00
2019-05-11T08:35:58.251Z,100.00
2019-05-11T08:38:28.537Z,100.00
2019-05-11T08:40:59.060Z,100.00
2019-05-11T08:43:28.474Z,100.00
2019-05-11T08:45:57.915Z,100.00
2019-05-11T08:48:28.357Z,100.00
2019-05-11T08:50:58.180Z,100.00
2019-05-11T08:53:28.427Z,100.00
2019-05-11T08:55:58.820Z,100.00
2019-05-11T08:58:27.946Z,100.00
2019-05-11T09:00:58.281Z,100.00
2019-05-11T09:03:28.440Z,100.00
2019-05-11T09:05:58.062Z,100.00
2019-05-11T09:08:28.281Z,100.00
2019-05-11T09:10:58.231Z,100.00
2019-05-11T09:13:27.968Z,100.00
2019-05-11T09:15:58.860Z,100.00
2019-05-11T09:18:28.002Z,100.00
2019-05-11T09:20:57.728Z,100.00
2019-05-11T09:23:36.300Z,100.00
2019-05-11T09:25:58.439Z,100.00
2019-05-11T09:28:29.519Z,100.00
2019-05-11T09:30:57.932Z,100.00
2019-05-11T09:33:28.308Z,100.00
2019-05-11T09:35:58.357Z,100.00
2019-05-11T09:38:27.819Z,100.00
2019-05-11T09:40:58.552Z,100.00
2019-05-11T09:43:28.397Z,100.00
2019-05-11T09:45:58.269Z,100.00
2019-05-11T09:48:28.399Z,100.00
2019-05-11T09:50:58.790Z,100.00
2019-05-11T09:53:28.421Z,100.00
2019-05-11T09:55:58.681Z,100.00
2019-05-11T09:58:28.120Z,100.00
2019-05-11T10:00:58.584Z,100.00
2019-05-11T10:03:28.127Z,100.00
2019-05-11T10:05:58.016Z,100.00
2019-05-11T10:08:28.657Z,100.00
2019-05-11T10:10:58.057Z,100.00
2019-05-11T10:13:27.832Z,100.00
2019-05-11T10:16:04.579Z,100.00
2019-05-11T10:18:28.158Z,100.00
2019-05-11T10:20:58.675Z,100.00
2019-05-11T10:23:27.982Z,100.00
2019-05-11T10:25:58.583Z,100.00
2019-05-11T10:28:28.460Z,100.00
2019-05-11T10:30:57.897Z,100.00
2019-05-11T10:33:28.105Z,100.00
2019-05-11T10:35:58.779Z,100.00
2019-05-11T10:38:28.561Z,100.00
2019-05-11T10:40:58.182Z,100.00
2019-05-11T10:43:28.831Z,100.00
2019-05-11T10:45:58.827Z,100.00
2019-05-11T10:48:28.233Z,100.00
2019-05-11T10:50:57.630Z,99.69
2019-05-11T10:53:27.819Z,99.24
2019-05-11T10:55:58.181Z,100.00
2019-05-11T10:58:28.547Z,99.56
2019-05-11T11:00:58.227Z,100.00
2019-05-11T11:03:28.402Z,99.75
2019-05-11T11:05:58.055Z,100.00
2019-05-11T11:08:27.854Z,100.00
2019-05-11T11:10:58.558Z,100.00
2019-05-11T11:13:28.144Z,100.00
2019-05-11T11:15:58.158Z,100.00
2019-05-11T11:18:28.764Z,99.83
2019-05-11T11:20:58.138Z,100.00
2019-05-11T11:23:28.469Z,99.42
2019-05-11T11:25:58.565Z,98.72
2019-05-11T11:28:28.021Z,97.47
2019-05-11T11:30:58.421Z,97.79
2019-05-11T11:33:27.728Z,98.00
2019-05-11T11:35:57.963Z,98.47
2019-05-11T11:38:28.525Z,98.13
2019-05-11T11:40:58.702Z,97.68
2019-05-11T11:43:28.738Z,97.02
2019-05-11T11:45:58.057Z,96.75
2019-05-11T11:48:27.990Z,95.86
2019-05-11T11:50:58.519Z,95.63
2019-05-11T11:53:27.925Z,95.12
2019-05-11T11:55:58.636Z,95.27
2019-05-11T11:58:27.735Z,94.95
2019-05-11T12:00:58.722Z,94.91
2019-05-11T12:03:27.698Z,94.76
2019-05-11T12:05:58.144Z,95.10
2019-05-11T12:08:28.224Z,95.06
2019-05-11T12:10:58.862Z,96.12
2019-05-11T12:13:29.614Z,94.59
2019-05-11T12:15:58.459Z,94.38
2019-05-11T12:18:28.644Z,94.76
2019-05-11T12:20:58.609Z,94.38
2019-05-11T12:23:28.486Z,93.79
2019-05-11T12:25:57.996Z,93.24
2019-05-11T12:28:27.631Z,93.21
2019-05-11T12:30:58.444Z,94.68
2019-05-11T12:33:27.939Z,93.91
2019-05-11T12:35:58.698Z,94.08
2019-05-11T12:38:27.730Z,95.17
2019-05-11T12:40:57.978Z,94.76
2019-05-11T12:43:27.711Z,94.82
2019-05-11T12:45:58.569Z,95.33
2019-05-11T12:48:28.471Z,95.08
2019-05-11T12:50:58.778Z,94.56
2019-05-11T12:53:28.059Z,94.57
2019-05-11T12:55:58.842Z,94.56
2019-05-11T12:58:28.074Z,95.11
2019-05-11T13:00:58.471Z,95.11
2019-05-11T13:03:27.862Z,95.78
2019-05-11T13:05:58.585Z,95.14
2019-05-11T13:08:27.764Z,95.69
2019-05-11T13:10:58.442Z,95.15
2019-05-11T13:13:28.608Z,96.08
2019-05-11T13:15:58.485Z,95.47
2019-05-11T13:18:28.035Z,95.14
2019-05-11T13:20:58.824Z,95.75
2019-05-11T13:23:27.767Z,95.66
2019-05-11T13:25:58.510Z,94.16
2019-05-11T13:28:28.389Z,93.15
2019-05-11T13:30:58.040Z,93.29
2019-05-11T13:33:27.997Z,91.29
2019-05-11T13:35:57.860Z,91.07
2019-05-11T13:38:28.287Z,89.88
2019-05-11T13:40:59.102Z,91.18
2019-05-11T13:43:28.134Z,91.52
2019-05-11T13:45:58.410Z,90.34
2019-05-11T13:48:28.113Z,91.20
2019-05-11T13:50:58.242Z,91.77
2019-05-11T13:53:27.601Z,91.05
2019-05-11T13:55:58.527Z,90.62
2019-05-11T13:58:27.780Z,88.87
2019-05-11T14:00:58.538Z,87.94
2019-05-11T14:03:27.789Z,88.72
2019-05-11T14:05:58.191Z,89.98
2019-05-11T14:08:33.624Z,89.26
2019-05-11T14:11:08.581Z,89.30
2019-05-11T14:13:41.540Z,89.01
2019-05-11T14:16:11.359Z,89.15
2019-05-11T14:18:41.448Z,90.76
2019-05-11T14:21:10.308Z,89.59
2019-05-11T14:23:39.937Z,89.28
2019-05-11T14:26:13.544Z,88.73
2019-05-11T14:28:42.591Z,88.96
2019-05-11T14:31:13.302Z,87.84
2019-05-11T14:33:42.392Z,88.69
2019-05-11T14:36:18.041Z,87.57
2019-05-11T14:38:48.677Z,88.09
2019-05-11T14:41:18.931Z,88.87
2019-05-11T14:43:53.170Z,88.24
2019-05-11T14:46:23.965Z,88.93
2019-05-11T14:48:58.532Z,88.24
2019-05-11T14:51:28.401Z,88.85
2019-05-11T14:53:59.503Z,87.61
2019-05-11T14:56:31.005Z,87.62
2019-05-11T14:59:02.206Z,89.29
2019-05-11T15:01:32.865Z,88.33
2019-05-11T15:04:08.790Z,88.80
2019-05-11T15:06:40.282Z,88.32
2019-05-11T15:09:12.671Z,88.88
2019-05-11T15:11:41.516Z,89.80
2019-05-11T15:14:13.242Z,90.37
2019-05-11T15:16:42.853Z,89.32
2019-05-11T15:19:14.086Z,90.39
2019-05-11T15:21:47.481Z,90.51
2019-05-11T15:24:18.600Z,91.06
2019-05-11T15:26:51.653Z,89.35
2019-05-11T15:29:22.313Z,90.36
2019-05-11T15:32:22.163Z,90.54
2019-05-11T15:34:50.786Z,91.10
2019-05-11T15:37:19.410Z,90.78
2019-05-11T15:39:48.434Z,90.18
2019-05-11T15:42:19.783Z,89.62
2019-05-11T15:44:48.420Z,90.93
2019-05-11T15:47:17.142Z,91.29
2019-05-11T15:49:48.050Z,90.16
2019-05-11T15:52:18.620Z,91.58
2019-05-11T15:54:46.568Z,91.17
2019-05-11T15:57:17.803Z,92.67
2019-05-11T15:59:48.006Z,93.08
2019-05-11T16:02:17.844Z,93.96
2019-05-11T16:04:49.126Z,93.63
2019-05-11T16:07:18.653Z,93.39
2019-05-11T16:09:48.675Z,93.82
2019-05-11T16:12:18.171Z,93.56
2019-05-11T16:14:48.567Z,93.28
2019-05-11T16:17:17.372Z,93.77
2019-05-11T16:19:46.015Z,92.47
2019-05-11T16:22:17.828Z,92.85
2019-05-11T16:24:44.962Z,93.09
2019-05-11T16:27:13.665Z,93.96
2019-05-11T16:29:42.280Z,94.15
2019-05-11T16:32:10.885Z,93.05
2019-05-11T16:34:39.507Z,93.24
2019-05-11T16:37:10.207Z,93.63
2019-05-11T16:39:38.631Z,93.11
2019-05-11T16:42:08.535Z,93.11
2019-05-11T16:44:37.889Z,92.72
2019-05-11T16:47:07.879Z,93.44
2019-05-11T16:49:38.427Z,93.91
2019-05-11T16:52:07.748Z,94.15
2019-05-11T16:54:38.747Z,94.08
2019-05-11T16:57:08.627Z,93.83
2019-05-11T16:59:39.628Z,94.24
2019-05-11T17:02:08.328Z,94.28
2019-05-11T17:04:39.659Z,94.81
2019-05-11T17:07:07.602Z,94.97
2019-05-11T17:09:37.866Z,95.20
2019-05-11T17:12:08.600Z,94.95
2019-05-11T17:14:39.861Z,95.56
2019-05-11T17:17:08.515Z,95.12
2019-05-11T17:19:45.419Z,95.43
2019-05-11T17:22:08.317Z,95.02
2019-05-11T17:24:37.909Z,95.41
2019-05-11T17:27:08.840Z,95.01
2019-05-11T17:29:38.137Z,95.65
2019-05-11T17:32:08.614Z,95.52
2019-05-11T17:34:38.129Z,95.46
2019-05-11T17:37:08.850Z,95.49
2019-05-11T17:39:38.597Z,95.10
2019-05-11T17:42:09.009Z,95.08
2019-05-11T17:44:37.955Z,93.69
2019-05-11T17:47:08.405Z,94.70
2019-05-11T17:49:38.334Z,94.35
2019-05-11T17:52:08.109Z,93.69
2019-05-11T17:54:38.359Z,93.30
2019-05-11T17:57:07.339Z,93.35
2019-05-11T17:59:38.490Z,92.80
2019-05-11T18:02:06.650Z,92.61
2019-05-11T18:04:35.332Z,92.72
2019-05-11T18:07:04.090Z,91.75
2019-05-11T18:09:32.688Z,91.79
2019-05-11T18:12:01.307Z,91.72
2019-05-11T18:14:29.909Z,91.19
2019-05-11T18:16:59.082Z,90.95
2019-05-11T18:19:29.427Z,90.56
2019-05-11T18:21:58.194Z,91.00
2019-05-11T18:24:28.729Z,89.73
2019-05-11T18:26:59.434Z,89.69
2019-05-11T18:29:31.344Z,89.48
2019-05-11T18:32:10.580Z,89.08
2019-05-11T18:34:39.888Z,89.47
2019-05-11T18:37:08.835Z,88.83
2019-05-11T18:39:38.413Z,88.76
2019-05-11T18:42:08.335Z,89.61
2019-05-11T18:44:37.965Z,89.71
2019-05-11T18:47:08.818Z,90.33
2019-05-11T18:49:39.711Z,89.44
2019-05-11T18:52:13.332Z,89.04
2019-05-11T18:54:43.038Z,89.58
2019-05-11T18:57:18.721Z,89.49
2019-05-11T18:59:48.442Z,89.27
2019-05-11T19:02:21.547Z,89.95
2019-05-11T19:04:54.201Z,89.72
2019-05-11T19:07:33.791Z,89.76
2019-05-11T19:10:03.716Z,89.88
2019-05-11T19:12:38.123Z,89.33
2019-05-11T19:15:07.823Z,89.94
2019-05-11T19:17:41.712Z,89.51
2019-05-11T19:20:14.613Z,89.83
2019-05-11T19:22:46.070Z,90.74
2019-05-11T19:25:20.500Z,91.02
2019-05-11T19:27:51.589Z,90.55
2019-05-11T19:30:24.484Z,91.01
2019-05-11T19:32:58.985Z,90.73
2019-05-11T19:35:30.048Z,90.30
2019-05-11T19:38:00.120Z,89.84
2019-05-11T19:40:30.642Z,89.67
2019-05-11T19:43:05.280Z,90.16
2019-05-11T19:45:34.981Z,89.57
2019-05-11T19:48:16.360Z,90.20
2019-05-11T19:51:03.658Z,91.31
2019-05-11T19:53:22.017Z,92.99
2019-05-11T19:55:53.702Z,93.80
2019-05-11T19:58:24.499Z,94.64
2019-05-11T20:00:57.968Z,94.76
2019-05-11T20:03:28.572Z,93.52
2019-05-11T20:05:59.782Z,92.26
2019-05-11T20:08:42.390Z,92.57
2019-05-11T20:11:14.529Z,93.21
2019-05-11T20:13:43.729Z,94.18
2019-05-11T20:16:18.591Z,95.90
2019-05-11T20:18:48.023Z,95.66
2019-05-11T20:21:22.674Z,95.82
2019-05-11T20:23:52.753Z,96.08
2019-05-11T20:26:50.529Z,96.33
2019-05-11T20:29:20.203Z,96.62
2019-05-11T20:31:54.018Z,97.19
2019-05-11T20:34:29.976Z,97.07
2019-05-11T20:37:02.492Z,97.74
2019-05-11T20:39:34.882Z,98.84
2019-05-11T20:42:05.774Z,99.21
2019-05-11T20:44:39.027Z,99.75
2019-05-11T20:47:18.039Z,100.00
2019-05-11T20:49:48.265Z,100.00
2019-05-11T20:52:21.928Z,100.00
2019-05-11T20:54:53.835Z,100.00
2019-05-11T20:57:30.317Z,100.00
2019-05-11T21:00:02.650Z,100.00
2019-05-11T21:02:32.721Z,100.00
2019-05-11T21:05:04.781Z,100.00
2019-05-11T21:07:34.227Z,100.00
2019-05-11T21:10:08.653Z,100.00
2019-05-11T21:12:40.405Z,100.00
2019-05-11T21:15:11.754Z,100.00
2019-05-11T21:17:45.230Z,100.00
2019-05-11T21:20:17.911Z,100.00
2019-05-11T21:22:48.633Z,100.00
2019-05-11T21:25:21.731Z,100.00
2019-05-11T21:27:53.495Z,100.00
2019-05-11T21:30:22.971Z,100.00
2019-05-11T21:35:48.996Z,100.00
2019-05-11T21:38:19.762Z,100.00
2019-05-11T21:40:52.629Z,100.00
2019-05-11T21:43:27.618Z,100.00
2019-05-11T21:46:02.035Z,100.00
2019-05-11T21:48:33.584Z,100.00
2019-05-11T21:51:04.678Z,100.00
2019-05-11T21:53:34.035Z,100.00
2019-05-11T21:56:03.955Z,100.00
2019-05-11T21:58:37.631Z,100.00
2019-05-11T22:01:20.530Z,100.00
2019-05-11T22:03:51.362Z,100.00
2019-05-11T22:06:21.327Z,100.00
2019-05-11T22:08:53.117Z,100.00
2019-05-11T22:11:28.458Z,100.00
2019-05-11T22:14:11.987Z,100.00
2019-05-11T22:16:41.983Z,100.00
2019-05-11T22:19:17.950Z,100.00
2019-05-11T22:22:02.603Z,100.00
2019-05-11T22:24:33.360Z,100.00
2019-05-11T22:27:03.717Z,100.00
2019-05-11T22:29:37.867Z,100.00
2019-05-11T22:32:09.272Z,100.00
2019-05-11T22:34:39.233Z,100.00
2019-05-11T22:37:09.985Z,100.00
2019-05-11T22:39:41.123Z,100.00
2019-05-11T22:42:11.878Z,100.00
2019-05-11T22:44:44.619Z,100.00
2019-05-11T22:47:17.816Z,100.00
2019-05-11T22:49:52.822Z,100.00
2019-05-11T22:52:33.852Z,100.00
2019-05-11T22:55:00.256Z,100.00
2019-05-11T22:57:29.739Z,100.00
2019-05-11T22:59:58.725Z,100.00
2019-05-11T23:02:32.790Z,100.00
2019-05-11T23:05:02.136Z,100.00
2019-05-11T23:07:35.145Z,100.00
2019-05-11T23:10:08.592Z,100.00
2019-05-11T23:12:40.457Z,100.00
2019-05-11T23:15:31.399Z,100.00
2019-05-11T23:18:00.375Z,100.00
2019-05-11T23:20:33.958Z,100.00
2019-05-11T23:23:08.760Z,100.00
2019-05-11T23:25:50.255Z,100.00
2019-05-11T23:28:22.531Z,100.00
2019-05-11T23:30:58.408Z,100.00
2019-05-11T23:33:29.500Z,100.00
2019-05-11T23:36:02.776Z,100.00
2019-05-11T23:38:34.263Z,100.00
2019-05-11T23:41:08.285Z,100.00
2019-05-11T23:43:40.377Z,100.00
2019-05-11T23:46:11.031Z,100.00
2019-05-11T23:48:48.679Z,100.00
2019-05-11T23:51:21.787Z,100.00
2019-05-11T23:53:54.031Z,100.00
2019-05-11T23:56:28.351Z,100.00
2019-05-11T23:59:01.186Z,100.00
